Time,TemperatureF,DewpointF,PressureIn,WindDirection,WindDirectionDegrees,WindSpeedMPH,WindSpeedGustMPH,Humidity,HourlyPrecipIn,Conditions,Clouds,dailyrainin,SoftwareType,DateUTC
2013-10-14 00:00:00,46.2,38.4,30.53,North,357,0.0,0.0,74,0.00,NA,NA,-99.99,VWS Version 10.38,2013-10-14 04:00:00,
2013-10-14 00:04:00,46.2,38.4,30.53,North,357,0.0,0.0,74,0.00,NA,NA,-99.99,VWS Version 10.38,2013-10-14 04:04:00,
2013-10-14 00:09:00,46.0,38.2,30.53,North,357,0.0,0.0,74,0.00,NA,NA,-99.99,VWS Version 10.38,2013-10-14 04:09:00,
2013-10-14 00:14:00,45.9,38.0,30.53,North,357,0.0,0.0,74,0.00,NA,NA,-99.99,VWS Version 10.38,2013-10-14 04:14:00,
2013-10-14 00:19:00,45.5,38.0,30.53,North,357,0.0,0.0,75,0.00,NA,NA,-99.99,VWS Version 10.38,2013-10-14 04:19:00,
2013-10-14 00:24:00,45.5,38.0,30.53,North,357,0.0,0.0,75,0.00,NA,NA,-99.99,VWS Version 10.38,2013-10-14 04:24:00,
2013-10-14 00:29:00,45.3,37.9,30.53,North,357,0.0,0.0,75,0.00,NA,NA,-99.99,VWS Version 10.38,2013-10-14 04:29:00,
2013-10-14 00:34:00,45.3,37.9,30.53,North,357,0.0,0.0,75,0.00,NA,NA,-99.99,VWS Version 10.38,2013-10-14 04:34:00,
2013-10-14 00:39:00,45.1,38.0,30.53,North,357,0.0,0.0,76,0.00,NA,NA,-99.99,VWS Version 10.38,2013-10-14 04:39:00,
2013-10-14 00:49:00,44.6,37.5,30.53,North,357,0.0,0.0,76,0.00,NA,NA,-99.99,VWS Version 10.38,2013-10-14 04:49:00,
2013-10-14 00:54:00,44.4,37.7,30.53,North,357,0.0,0.0,77,0.00,NA,NA,-99.99,VWS Version 10.38,2013-10-14 04:54:00,
2013-10-14 00:59:00,44.2,37.5,30.53,North,357,0.0,0.0,77,0.00,NA,NA,-99.99,VWS Version 10.38,2013-10-14 04:59:00,
2013-10-14 01:04:00,44.1,37.3,30.53,North,357,0.0,0.0,77,0.00,NA,NA,-99.99,VWS Version 10.38,2013-10-14 05:04:00,
2013-10-14 01:09:00,43.9,37.2,30.53,North,357,0.0,0.0,77,0.00,NA,NA,-99.99,VWS Version 10.38,2013-10-14 05:09:00,
2013-10-14 01:14:00,43.7,37.0,30.53,North,357,0.0,0.0,77,0.00,NA,NA,-99.99,VWS Version 10.38,2013-10-14 05:14:00,
2013-10-14 01:19:00,43.5,37.1,30.53,North,357,0.0,0.0,78,0.00,NA,NA,-99.99,VWS Version 10.38,2013-10-14 05:19:00,
2013-10-14 01:24:00,43.5,37.1,30.53,North,357,0.0,0.0,78,0.00,NA,NA,-99.99,VWS Version 10.38,2013-10-14 05:24:00,
2013-10-14 01:29:00,43.5,37.5,30.53,North,357,0.0,0.0,79,0.00,NA,NA,-99.99,VWS Version 10.38,2013-10-14 05:29:00,
2013-10-14 01:34:00,43.3,37.3,30.53,North,357,0.0,0.0,79,0.00,NA,NA,-99.99,VWS Version 10.38,2013-10-14 05:34:00,
2013-10-14 01:39:00,43.0,36.9,30.53,North,357,0.0,0.0,79,0.00,NA,NA,-99.99,VWS Version 10.38,2013-10-14 05:39:00,
2013-10-14 01:44:00,42.8,36.8,30.53,North,357,0.0,0.0,79,0.00,NA,NA,-99.99,VWS Version 10.38,2013-10-14 05:44:00,
2013-10-14 01:49:00,42.4,36.4,30.53,North,357,0.0,0.0,79,0.00,NA,NA,-99.99,VWS Version 10.38,2013-10-14 05:49:00,
2013-10-14 01:54:00,42.3,36.5,30.53,North,357,0.0,0.0,80,0.00,NA,NA,-99.99,VWS Version 10.38,2013-10-14 05:54:00,
2013-10-14 01:59:00,42.3,36.5,30.53,North,357,0.0,0.0,80,0.00,NA,NA,-99.99,VWS Version 10.38,2013-10-14 05:59:00,
2013-10-14 02:04:00,42.3,36.5,30.53,North,357,0.0,0.0,80,0.00,NA,NA,-99.99,VWS Version 10.38,2013-10-14 06:04:00,
2013-10-14 02:09:00,42.3,36.9,30.53,North,357,0.0,0.0,81,0.00,NA,NA,-99.99,VWS Version 10.38,2013-10-14 06:09:00,
2013-10-14 02:14:00,42.1,36.7,30.50,North,357,0.0,0.0,81,0.00,NA,NA,-99.99,VWS Version 10.38,2013-10-14 06:14:00,
2013-10-14 02:19:00,41.9,36.5,30.50,North,357,0.0,0.0,81,0.00,NA,NA,-99.99,VWS Version 10.38,2013-10-14 06:19:00,
2013-10-14 02:24:00,41.7,36.3,30.50,North,357,0.0,0.0,81,0.00,NA,NA,-99.99,VWS Version 10.38,2013-10-14 06:24:00,
2013-10-14 02:29:00,41.7,36.3,30.50,North,357,0.0,0.0,81,0.00,NA,NA,-99.99,VWS Version 10.38,2013-10-14 06:29:00,
2013-10-14 02:34:00,41.5,36.2,30.50,North,357,0.0,0.0,81,0.00,NA,NA,-99.99,VWS Version 10.38,2013-10-14 06:34:00,
2013-10-14 02:39:00,41.4,36.3,30.50,North,357,0.0,0.0,82,0.00,NA,NA,-99.99,VWS Version 10.38,2013-10-14 06:39:00,
2013-10-14 02:44:00,41.2,36.1,30.50,North,357,0.0,0.0,82,0.00,NA,NA,-99.99,VWS Version 10.38,2013-10-14 06:44:00,
2013-10-14 02:49:00,41.0,35.9,30.50,North,357,0.0,0.0,82,0.00,NA,NA,-99.99,VWS Version 10.38,2013-10-14 06:49:00,
2013-10-14 02:54:00,40.8,35.8,30.50,North,357,0.0,0.0,82,0.00,NA,NA,-99.99,VWS Version 10.38,2013-10-14 06:54:00,
2013-10-14 02:59:00,40.8,36.1,30.50,North,357,0.0,0.0,83,0.00,NA,NA,-99.99,VWS Version 10.38,2013-10-14 06:59:00,
2013-10-14 03:04:00,40.6,35.9,30.50,North,357,0.0,0.0,83,0.00,NA,NA,-99.99,VWS Version 10.38,2013-10-14 07:04:00,
2013-10-14 03:09:00,40.5,35.7,30.50,North,357,0.0,0.0,83,0.00,NA,NA,-99.99,VWS Version 10.38,2013-10-14 07:09:00,
2013-10-14 03:14:00,40.5,35.7,30.50,North,357,0.0,0.0,83,0.00,NA,NA,-99.99,VWS Version 10.38,2013-10-14 07:14:00,
2013-10-14 03:19:00,40.3,35.5,30.50,North,357,0.0,0.0,83,0.00,NA,NA,-99.99,VWS Version 10.38,2013-10-14 07:19:00,
2013-10-14 03:24:00,40.3,35.5,30.50,North,357,0.0,0.0,83,0.00,NA,NA,-99.99,VWS Version 10.38,2013-10-14 07:24:00,
2013-10-14 03:29:00,40.3,35.5,30.50,North,357,0.0,0.0,83,0.00,NA,NA,-99.99,VWS Version 10.38,2013-10-14 07:29:00,
2013-10-14 03:34:00,40.1,35.4,30.50,North,357,0.0,0.0,83,0.00,NA,NA,-99.99,VWS Version 10.38,2013-10-14 07:34:00,
2013-10-14 03:45:00,40.1,35.7,30.50,North,357,0.0,0.0,84,0.00,NA,NA,-99.99,VWS Version 10.38,2013-10-14 07:45:00,
2013-10-14 03:50:00,39.9,35.5,30.50,North,357,0.0,0.0,84,0.00,NA,NA,-99.99,VWS Version 10.38,2013-10-14 07:50:00,
2013-10-14 03:55:00,39.7,35.3,30.50,North,357,0.0,0.0,84,0.00,NA,NA,-99.99,VWS Version 10.38,2013-10-14 07:55:00,
2013-10-14 04:05:00,39.9,35.5,30.50,North,357,0.0,0.0,84,0.00,NA,NA,-99.99,VWS Version 10.38,2013-10-14 08:05:00,
2013-10-14 04:10:00,39.7,35.3,30.50,North,357,0.0,0.0,84,0.00,NA,NA,-99.99,VWS Version 10.38,2013-10-14 08:10:00,
2013-10-14 04:15:00,39.6,35.1,30.50,North,357,0.0,0.0,84,0.00,NA,NA,-99.99,VWS Version 10.38,2013-10-14 08:15:00,
2013-10-14 04:20:00,39.4,35.0,30.50,North,357,0.0,0.0,84,0.00,NA,NA,-99.99,VWS Version 10.38,2013-10-14 08:20:00,
2013-10-14 04:25:00,39.4,35.0,30.50,North,357,0.0,0.0,84,0.00,NA,NA,-99.99,VWS Version 10.38,2013-10-14 08:25:00,
2013-10-14 04:35:00,39.2,34.8,30.50,North,357,0.0,0.0,84,0.00,NA,NA,-99.99,VWS Version 10.38,2013-10-14 08:35:00,
2013-10-14 04:40:00,39.4,35.2,30.50,North,357,0.0,0.0,85,0.00,NA,NA,-99.99,VWS Version 10.38,2013-10-14 08:40:00,
2013-10-14 04:45:00,39.2,35.1,30.50,North,357,0.0,0.0,85,0.00,NA,NA,-99.99,VWS Version 10.38,2013-10-14 08:45:00,
2013-10-14 04:50:00,39.0,34.9,30.50,North,357,0.0,0.0,85,0.00,NA,NA,-99.99,VWS Version 10.38,2013-10-14 08:50:00,
2013-10-14 04:55:00,39.0,34.9,30.50,North,357,0.0,0.0,85,0.00,NA,NA,-99.99,VWS Version 10.38,2013-10-14 08:55:00,
2013-10-14 05:00:00,39.2,35.1,30.50,North,357,0.0,0.0,85,0.00,NA,NA,-99.99,VWS Version 10.38,2013-10-14 09:00:00,
2013-10-14 05:05:00,39.0,34.9,30.50,North,357,0.0,0.0,85,0.00,NA,NA,-99.99,VWS Version 10.38,2013-10-14 09:05:00,
2013-10-14 05:15:00,38.8,35.0,30.50,North,357,0.0,0.0,86,0.00,NA,NA,-99.99,VWS Version 10.38,2013-10-14 09:15:00,
2013-10-14 05:20:00,38.7,34.8,30.50,North,357,0.0,0.0,86,0.00,NA,NA,-99.99,VWS Version 10.38,2013-10-14 09:20:00,
2013-10-14 05:25:00,38.7,34.8,30.50,North,357,0.0,0.0,86,0.00,NA,NA,-99.99,VWS Version 10.38,2013-10-14 09:25:00,
2013-10-14 05:30:00,38.5,34.7,30.50,North,357,0.0,0.0,86,0.00,NA,NA,-99.99,VWS Version 10.38,2013-10-14 09:30:00,
2013-10-14 05:35:00,38.3,34.5,30.50,North,357,0.0,0.0,86,0.00,NA,NA,-99.99,VWS Version 10.38,2013-10-14 09:35:00,
2013-10-14 05:40:00,38.3,34.5,30.50,North,357,0.0,0.0,86,0.00,NA,NA,-99.99,VWS Version 10.38,2013-10-14 09:40:00,
2013-10-14 05:49:00,38.1,34.3,30.50,North,357,0.0,0.0,86,0.00,NA,NA,-99.99,VWS Version 10.38,2013-10-14 09:49:00,
2013-10-14 05:54:00,38.1,34.3,30.50,North,357,0.0,0.0,86,0.00,NA,NA,-99.99,VWS Version 10.38,2013-10-14 09:54:00,
2013-10-14 06:00:00,37.9,34.1,30.50,North,357,0.0,0.0,86,0.00,NA,NA,-99.99,VWS Version 10.38,2013-10-14 10:00:00,
2013-10-14 06:04:00,37.9,34.1,30.50,North,357,0.0,0.0,86,0.00,NA,NA,-99.99,VWS Version 10.38,2013-10-14 10:04:00,
2013-10-14 06:09:00,37.9,34.1,30.50,North,357,0.0,0.0,86,0.00,NA,NA,-99.99,VWS Version 10.38,2013-10-14 10:09:00,
2013-10-14 06:14:00,37.9,34.1,30.50,North,357,0.0,0.0,86,0.00,NA,NA,-99.99,VWS Version 10.38,2013-10-14 10:14:00,
2013-10-14 06:24:00,37.6,33.8,30.50,North,357,0.0,0.0,86,0.00,NA,NA,-99.99,VWS Version 10.38,2013-10-14 10:24:00,
2013-10-14 06:29:00,37.4,33.6,30.50,North,357,0.0,0.0,86,0.00,NA,NA,-99.99,VWS Version 10.38,2013-10-14 10:29:00,
2013-10-14 06:34:00,37.4,33.6,30.50,North,357,0.0,0.0,86,0.00,NA,NA,-99.99,VWS Version 10.38,2013-10-14 10:34:00,
2013-10-14 06:39:00,37.6,34.1,30.53,North,357,0.0,0.0,87,0.00,NA,NA,-99.99,VWS Version 10.38,2013-10-14 10:39:00,
2013-10-14 06:44:00,37.6,34.1,30.53,North,357,0.0,0.0,87,0.00,NA,NA,-99.99,VWS Version 10.38,2013-10-14 10:44:00,
2013-10-14 06:54:00,37.4,33.9,30.53,North,357,0.0,0.0,87,0.00,NA,NA,-99.99,VWS Version 10.38,2013-10-14 10:54:00,
2013-10-14 06:59:00,37.0,33.5,30.50,North,357,0.0,0.0,87,0.00,NA,NA,-99.99,VWS Version 10.38,2013-10-14 10:59:00,
2013-10-14 07:04:00,37.0,33.5,30.50,North,357,0.0,0.0,87,0.00,NA,NA,-99.99,VWS Version 10.38,2013-10-14 11:04:00,
2013-10-14 07:09:00,37.0,33.5,30.53,North,357,0.0,0.0,87,0.00,NA,NA,-99.99,VWS Version 10.38,2013-10-14 11:09:00,
2013-10-14 07:14:00,37.0,33.5,30.53,North,357,0.0,0.0,87,0.00,NA,NA,-99.99,VWS Version 10.38,2013-10-14 11:14:00,
2013-10-14 07:19:00,36.9,33.4,30.53,North,357,0.0,0.0,87,0.00,NA,NA,-99.99,VWS Version 10.38,2013-10-14 11:19:00,
2013-10-14 07:29:00,37.2,34.0,30.53,North,357,0.0,0.0,88,0.00,NA,NA,-99.99,VWS Version 10.38,2013-10-14 11:29:00,
2013-10-14 07:34:00,37.2,34.0,30.53,North,357,0.0,0.0,88,0.00,NA,NA,-99.99,VWS Version 10.38,2013-10-14 11:34:00,
2013-10-14 07:39:00,37.4,33.9,30.53,North,357,0.0,0.0,87,0.00,NA,NA,-99.99,VWS Version 10.38,2013-10-14 11:39:00,
2013-10-14 07:44:00,37.4,34.2,30.50,North,357,0.0,0.0,88,0.00,NA,NA,-99.99,VWS Version 10.38,2013-10-14 11:44:00,
2013-10-14 07:49:00,37.8,34.5,30.50,North,357,0.0,0.0,88,0.00,NA,NA,-99.99,VWS Version 10.38,2013-10-14 11:49:00,
2013-10-14 07:54:00,37.9,34.7,30.53,North,357,0.0,0.0,88,0.00,NA,NA,-99.99,VWS Version 10.38,2013-10-14 11:54:00,
2013-10-14 07:59:00,38.1,34.9,30.53,North,357,0.0,0.0,88,0.00,NA,NA,-99.99,VWS Version 10.38,2013-10-14 11:59:00,
2013-10-14 08:04:00,38.3,35.1,30.53,North,357,0.0,0.0,88,0.00,NA,NA,-99.99,VWS Version 10.38,2013-10-14 12:04:00,
2013-10-14 08:09:00,38.7,35.4,30.53,North,357,0.0,0.0,88,0.00,NA,NA,-99.99,VWS Version 10.38,2013-10-14 12:09:00,
2013-10-14 08:14:00,39.0,35.8,30.53,North,357,0.0,0.0,88,0.00,NA,NA,-99.99,VWS Version 10.38,2013-10-14 12:14:00,
2013-10-14 08:19:00,39.4,36.1,30.53,North,357,0.0,0.0,88,0.00,NA,NA,-99.99,VWS Version 10.38,2013-10-14 12:19:00,
2013-10-14 08:24:00,39.7,36.5,30.53,North,357,0.0,0.0,88,0.00,NA,NA,-99.99,VWS Version 10.38,2013-10-14 12:24:00,
2013-10-14 08:29:00,40.1,36.8,30.53,North,357,0.0,0.0,88,0.00,NA,NA,-99.99,VWS Version 10.38,2013-10-14 12:29:00,
2013-10-14 08:34:00,40.8,37.8,30.53,North,357,0.0,0.0,89,0.00,NA,NA,-99.99,VWS Version 10.38,2013-10-14 12:34:00,
2013-10-14 08:44:00,41.9,38.9,30.53,North,357,0.0,0.0,89,0.00,NA,NA,-99.99,VWS Version 10.38,2013-10-14 12:44:00,
2013-10-14 08:49:00,42.6,39.9,30.53,North,357,0.0,0.0,90,0.00,NA,NA,-99.99,VWS Version 10.38,2013-10-14 12:49:00,
2013-10-14 08:59:00,43.7,41.0,30.53,North,357,0.0,0.0,90,0.00,NA,NA,-99.99,VWS Version 10.38,2013-10-14 12:59:00,
2013-10-14 09:04:00,44.4,41.7,30.53,North,357,0.0,0.0,90,0.00,NA,NA,-99.99,VWS Version 10.38,2013-10-14 13:04:00,
2013-10-14 09:09:00,45.0,42.2,30.53,North,357,0.0,0.0,90,0.00,NA,NA,-99.99,VWS Version 10.38,2013-10-14 13:09:00,
2013-10-14 09:19:00,46.0,43.3,30.53,North,357,0.0,0.0,90,0.00,NA,NA,-99.99,VWS Version 10.38,2013-10-14 13:19:00,
2013-10-14 09:24:00,46.6,43.8,30.53,North,357,0.0,0.0,90,0.00,NA,NA,-99.99,VWS Version 10.38,2013-10-14 13:24:00,
2013-10-14 09:34:00,47.7,45.2,30.53,North,357,0.0,0.0,91,0.00,NA,NA,-99.99,VWS Version 10.38,2013-10-14 13:34:00,
2013-10-14 09:39:00,48.2,45.4,30.53,North,357,0.0,0.0,90,0.00,NA,NA,-99.99,VWS Version 10.38,2013-10-14 13:39:00,
2013-10-14 09:44:00,48.7,46.2,30.53,North,357,0.0,0.0,91,0.00,NA,NA,-99.99,VWS Version 10.38,2013-10-14 13:44:00,
2013-10-14 09:49:00,49.3,46.8,30.53,NNW,330,0.0,0.0,91,0.00,NA,NA,-99.99,VWS Version 10.38,2013-10-14 13:49:00,
2013-10-14 09:54:00,50.0,47.2,30.53,NW,325,0.0,0.0,90,0.00,NA,NA,-99.99,VWS Version 10.38,2013-10-14 13:54:00,
2013-10-14 09:59:00,50.7,48.2,30.53,ENE,61,0.0,0.0,91,0.00,NA,NA,-99.99,VWS Version 10.38,2013-10-14 13:59:00,
2013-10-14 10:04:00,51.4,48.9,30.53,ENE,62,0.0,0.0,91,0.00,NA,NA,-99.99,VWS Version 10.38,2013-10-14 14:04:00,
2013-10-14 10:09:00,52.0,49.4,30.53,East,86,0.0,0.0,91,0.00,NA,NA,-99.99,VWS Version 10.38,2013-10-14 14:09:00,
2013-10-14 10:19:00,53.4,50.9,30.53,East,96,0.0,0.0,91,0.00,NA,NA,-99.99,VWS Version 10.38,2013-10-14 14:19:00,
2013-10-14 10:24:00,54.1,51.6,30.53,East,82,0.0,0.0,91,0.00,NA,NA,-99.99,VWS Version 10.38,2013-10-14 14:24:00,
2013-10-14 10:29:00,54.7,52.1,30.50,NW,308,3.6,3.6,91,0.00,NA,NA,-99.99,VWS Version 10.38,2013-10-14 14:29:00,
2013-10-14 10:34:00,55.2,52.6,30.50,SE,138,3.6,3.6,91,0.00,NA,NA,-99.99,VWS Version 10.38,2013-10-14 14:34:00,
2013-10-14 10:39:00,55.8,52.9,30.50,SW,235,2.7,2.7,90,0.00,NA,NA,-99.99,VWS Version 10.38,2013-10-14 14:39:00,
2013-10-14 10:44:00,56.3,53.4,30.50,SE,125,3.1,3.1,90,0.00,NA,NA,-99.99,VWS Version 10.38,2013-10-14 14:44:00,
2013-10-14 10:54:00,56.8,53.3,30.50,SSE,167,2.7,2.7,88,0.00,NA,NA,-99.99,VWS Version 10.38,2013-10-14 14:54:00,
2013-10-14 10:59:00,56.8,51.1,30.50,East,91,0.0,0.0,81,0.00,NA,NA,-99.99,VWS Version 10.38,2013-10-14 14:59:00,
2013-10-14 11:04:00,57.4,51.6,30.50,West,277,0.0,0.0,81,0.00,NA,NA,-99.99,VWS Version 10.38,2013-10-14 15:04:00,
2013-10-14 11:09:00,57.9,51.8,30.50,WSW,254,3.6,3.6,80,0.00,NA,NA,-99.99,VWS Version 10.38,2013-10-14 15:09:00,
2013-10-14 11:14:00,57.9,50.4,30.50,NW,322,0.0,0.0,76,0.00,NA,NA,-99.99,VWS Version 10.38,2013-10-14 15:14:00,
2013-10-14 11:19:00,58.3,50.0,30.50,NNE,22,0.0,0.0,74,0.00,NA,NA,-99.99,VWS Version 10.38,2013-10-14 15:19:00,
2013-10-14 11:29:00,59.0,47.3,30.50,ESE,109,2.2,2.2,65,0.00,NA,NA,-99.99,VWS Version 10.38,2013-10-14 15:29:00,
2013-10-14 11:39:00,59.5,44.3,30.50,WSW,253,3.1,3.1,57,0.00,NA,NA,-99.99,VWS Version 10.38,2013-10-14 15:39:00,
2013-10-14 11:44:00,59.7,42.6,30.47,NW,310,4.0,4.0,53,0.00,NA,NA,-99.99,VWS Version 10.38,2013-10-14 15:44:00,
2013-10-14 11:49:00,59.5,40.9,30.47,NW,313,3.1,3.1,50,0.00,NA,NA,-99.99,VWS Version 10.38,2013-10-14 15:49:00,
2013-10-14 11:54:00,59.5,40.4,30.47,SSW,208,0.0,0.0,49,0.00,NA,NA,-99.99,VWS Version 10.38,2013-10-14 15:54:00,
2013-10-14 11:59:00,59.5,39.8,30.47,West,267,3.6,3.6,48,0.00,NA,NA,-99.99,VWS Version 10.38,2013-10-14 15:59:00,
2013-10-14 12:04:00,59.7,38.9,30.47,ESE,102,0.0,0.0,46,0.00,NA,NA,-99.99,VWS Version 10.38,2013-10-14 16:04:00,
2013-10-14 12:14:00,60.8,38.8,30.47,SW,229,0.0,0.0,44,0.00,NA,NA,-99.99,VWS Version 10.38,2013-10-14 16:14:00,
2013-10-14 12:19:00,61.0,37.1,30.47,SE,138,2.2,2.2,41,0.00,NA,NA,-99.99,VWS Version 10.38,2013-10-14 16:19:00,
2013-10-14 12:24:00,61.3,36.8,30.47,East,92,2.7,2.7,40,0.00,NA,NA,-99.99,VWS Version 10.38,2013-10-14 16:24:00,
2013-10-14 12:29:00,62.1,38.1,30.47,SSW,193,2.2,2.2,41,0.00,NA,NA,-99.99,VWS Version 10.38,2013-10-14 16:29:00,
2013-10-14 12:34:00,63.0,37.6,30.47,West,277,3.6,3.6,39,0.00,NA,NA,-99.99,VWS Version 10.38,2013-10-14 16:34:00,
2013-10-14 12:39:00,63.3,37.3,30.47,West,265,3.1,3.1,38,0.00,NA,NA,-99.99,VWS Version 10.38,2013-10-14 16:39:00,
2013-10-14 12:44:00,63.5,36.8,30.44,WNW,292,4.5,4.5,37,0.00,NA,NA,-99.99,VWS Version 10.38,2013-10-14 16:44:00,
2013-10-14 12:54:00,63.7,35.5,30.44,ESE,123,4.0,4.0,35,0.00,NA,NA,-99.99,VWS Version 10.38,2013-10-14 16:54:00,
2013-10-14 12:59:00,64.4,36.2,30.44,SW,221,3.6,3.6,35,0.00,NA,NA,-99.99,VWS Version 10.38,2013-10-14 16:59:00,
2013-10-14 13:04:00,64.8,35.0,30.44,SW,223,2.7,2.7,33,0.00,NA,NA,-99.99,VWS Version 10.38,2013-10-14 17:04:00,
2013-10-14 13:09:00,65.5,35.6,30.44,SSE,154,0.0,0.0,33,0.00,NA,NA,-99.99,VWS Version 10.38,2013-10-14 17:09:00,
2013-10-14 13:14:00,65.8,33.6,30.44,SE,146,2.7,2.7,30,0.00,NA,NA,-99.99,VWS Version 10.38,2013-10-14 17:14:00,
2013-10-14 13:19:00,66.2,34.7,30.44,SSW,203,2.7,2.7,31,0.00,NA,NA,-99.99,VWS Version 10.38,2013-10-14 17:19:00,
2013-10-14 13:24:00,66.2,33.0,30.44,NW,318,2.7,2.7,29,0.00,NA,NA,-99.99,VWS Version 10.38,2013-10-14 17:24:00,
2013-10-14 13:29:00,66.4,32.3,30.44,ESE,112,3.1,3.1,28,0.00,NA,NA,-99.99,VWS Version 10.38,2013-10-14 17:29:00,
2013-10-14 13:39:00,66.4,31.4,30.44,West,281,4.0,4.0,27,0.00,NA,NA,-99.99,VWS Version 10.38,2013-10-14 17:39:00,
2013-10-14 13:44:00,66.2,31.3,30.44,West,265,4.9,4.9,27,0.00,NA,NA,-99.99,VWS Version 10.38,2013-10-14 17:44:00,
2013-10-14 13:49:00,66.6,32.5,30.44,WNW,292,3.6,3.6,28,0.00,NA,NA,-99.99,VWS Version 10.38,2013-10-14 17:49:00,
2013-10-14 13:54:00,66.6,31.6,30.44,SW,221,3.6,3.6,27,0.00,NA,NA,-99.99,VWS Version 10.38,2013-10-14 17:54:00,
2013-10-14 13:59:00,66.0,30.2,30.41,SW,219,0.0,0.0,26,0.00,NA,NA,-99.99,VWS Version 10.38,2013-10-14 17:59:00,
2013-10-14 14:04:00,65.7,30.8,30.41,SW,214,0.0,0.0,27,0.00,NA,NA,-99.99,VWS Version 10.38,2013-10-14 18:04:00,
2013-10-14 14:09:00,65.3,30.5,30.41,WNW,293,2.7,2.7,27,0.00,NA,NA,-99.99,VWS Version 10.38,2013-10-14 18:09:00,
2013-10-14 14:19:00,65.1,30.3,30.41,SW,219,0.0,0.0,27,0.00,NA,NA,-99.99,VWS Version 10.38,2013-10-14 18:19:00,
2013-10-14 14:24:00,65.1,30.3,30.41,SW,225,3.6,3.6,27,0.00,NA,NA,-99.99,VWS Version 10.38,2013-10-14 18:24:00,
2013-10-14 14:29:00,65.5,30.6,30.41,West,277,2.2,2.2,27,0.00,NA,NA,-99.99,VWS Version 10.38,2013-10-14 18:29:00,
2013-10-14 14:34:00,65.5,30.6,30.41,WNW,302,4.0,4.0,27,0.00,NA,NA,-99.99,VWS Version 10.38,2013-10-14 18:34:00,
2013-10-14 14:40:00,65.5,29.7,30.41,West,262,0.0,0.0,26,0.00,NA,NA,-99.99,VWS Version 10.38,2013-10-14 18:40:00,
2013-10-14 14:45:00,65.7,29.9,30.41,SSW,209,0.0,0.0,26,0.00,NA,NA,-99.99,VWS Version 10.38,2013-10-14 18:45:00,
2013-10-14 14:50:00,65.8,30.0,30.41,WNW,287,0.0,0.0,26,0.00,NA,NA,-99.99,VWS Version 10.38,2013-10-14 18:50:00,
2013-10-14 15:00:00,65.8,29.1,30.41,SE,138,0.0,0.0,25,0.00,NA,NA,-99.99,VWS Version 10.38,2013-10-14 19:00:00,
2013-10-14 15:05:00,65.7,28.9,30.41,SE,133,0.0,0.0,25,0.00,NA,NA,-99.99,VWS Version 10.38,2013-10-14 19:05:00,
2013-10-14 15:10:00,65.5,28.8,30.41,West,267,0.0,0.0,25,0.00,NA,NA,-99.99,VWS Version 10.38,2013-10-14 19:10:00,
2013-10-14 15:15:00,65.3,28.6,30.41,SSW,210,0.0,0.0,25,0.00,NA,NA,-99.99,VWS Version 10.38,2013-10-14 19:15:00,
2013-10-14 15:20:00,65.1,28.5,30.41,SSW,207,0.0,0.0,25,0.00,NA,NA,-99.99,VWS Version 10.38,2013-10-14 19:20:00,
2013-10-14 15:30:00,64.8,28.1,30.41,SSW,209,0.0,0.0,25,0.00,NA,NA,-99.99,VWS Version 10.38,2013-10-14 19:30:00,
2013-10-14 15:35:00,64.8,28.1,30.41,SSW,209,0.0,0.0,25,0.00,NA,NA,-99.99,VWS Version 10.38,2013-10-14 19:35:00,
2013-10-14 15:40:00,64.4,27.8,30.41,ESE,117,3.1,3.1,25,0.00,NA,NA,-99.99,VWS Version 10.38,2013-10-14 19:40:00,
2013-10-14 15:45:00,64.4,27.8,30.41,ESE,119,0.0,0.0,25,0.00,NA,NA,-99.99,VWS Version 10.38,2013-10-14 19:45:00,
2013-10-14 15:50:00,64.6,27.0,30.41,South,186,0.0,0.0,24,0.00,NA,NA,-99.99,VWS Version 10.38,2013-10-14 19:50:00,
2013-10-14 15:55:00,65.1,28.5,30.41,SSE,161,0.0,0.0,25,0.00,NA,NA,-99.99,VWS Version 10.38,2013-10-14 19:55:00,
2013-10-14 16:05:00,65.1,33.8,30.41,South,179,0.0,0.0,31,0.00,NA,NA,-99.99,VWS Version 10.38,2013-10-14 20:05:00,
2013-10-14 16:10:00,64.9,35.2,30.41,SSE,150,4.0,4.0,33,0.00,NA,NA,-99.99,VWS Version 10.38,2013-10-14 20:10:00,
2013-10-14 16:15:00,64.8,35.0,30.41,SW,214,0.0,0.0,33,0.00,NA,NA,-99.99,VWS Version 10.38,2013-10-14 20:15:00,
2013-10-14 16:20:00,64.2,35.3,30.41,SW,215,3.6,3.6,34,0.00,NA,NA,-99.99,VWS Version 10.38,2013-10-14 20:20:00,
2013-10-14 16:25:00,63.5,34.7,30.41,SW,224,0.0,0.0,34,0.00,NA,NA,-99.99,VWS Version 10.38,2013-10-14 20:25:00,
2013-10-14 16:30:00,63.1,35.8,30.41,SSW,210,0.0,0.0,36,0.00,NA,NA,-99.99,VWS Version 10.38,2013-10-14 20:30:00,
2013-10-14 16:39:00,63.5,36.1,30.41,SE,124,0.0,0.0,36,0.00,NA,NA,-99.99,VWS Version 10.38,2013-10-14 20:39:00,
2013-10-14 16:44:00,63.1,35.8,30.41,SSE,152,4.0,4.0,36,0.00,NA,NA,-99.99,VWS Version 10.38,2013-10-14 20:44:00,
2013-10-14 16:49:00,63.1,35.8,30.41,SSW,201,2.2,2.2,36,0.00,NA,NA,-99.99,VWS Version 10.38,2013-10-14 20:49:00,
2013-10-14 16:54:00,63.1,35.8,30.41,SSE,156,0.0,0.0,36,0.00,NA,NA,-99.99,VWS Version 10.38,2013-10-14 20:54:00,
2013-10-14 16:59:00,62.6,35.3,30.41,ESE,114,2.2,2.2,36,0.00,NA,NA,-99.99,VWS Version 10.38,2013-10-14 20:59:00,
2013-10-14 17:04:00,62.1,35.5,30.41,SSE,147,3.6,3.6,37,0.00,NA,NA,-99.99,VWS Version 10.38,2013-10-14 21:04:00,
2013-10-14 17:14:00,60.8,34.4,30.41,SE,135,2.7,2.7,37,0.00,NA,NA,-99.99,VWS Version 10.38,2013-10-14 21:14:00,
2013-10-14 17:19:00,60.1,34.4,30.41,ESE,115,0.0,0.0,38,0.00,NA,NA,-99.99,VWS Version 10.38,2013-10-14 21:19:00,
2013-10-14 17:24:00,59.5,33.9,30.41,SE,144,0.0,0.0,38,0.00,NA,NA,-99.99,VWS Version 10.38,2013-10-14 21:24:00,
2013-10-14 17:29:00,59.0,34.1,30.41,SE,144,0.0,0.0,39,0.00,NA,NA,-99.99,VWS Version 10.38,2013-10-14 21:29:00,
2013-10-14 17:34:00,58.6,34.4,30.41,SE,129,0.0,0.0,40,0.00,NA,NA,-99.99,VWS Version 10.38,2013-10-14 21:34:00,
2013-10-14 17:39:00,58.3,34.7,30.41,SE,129,0.0,0.0,41,0.00,NA,NA,-99.99,VWS Version 10.38,2013-10-14 21:39:00,
2013-10-14 17:49:00,57.7,34.8,30.41,SE,129,0.0,0.0,42,0.00,NA,NA,-99.99,VWS Version 10.38,2013-10-14 21:49:00,
2013-10-14 17:54:00,57.4,34.5,30.41,SSE,149,0.0,0.0,42,0.00,NA,NA,-99.99,VWS Version 10.38,2013-10-14 21:54:00,
2013-10-14 17:59:00,57.0,35.3,30.41,SSE,147,0.0,0.0,44,0.00,NA,NA,-99.99,VWS Version 10.38,2013-10-14 21:59:00,
2013-10-14 18:04:00,56.7,35.6,30.41,SSE,147,0.0,0.0,45,0.00,NA,NA,-99.99,VWS Version 10.38,2013-10-14 22:04:00,
2013-10-14 18:09:00,56.3,35.2,30.41,SSE,147,0.0,0.0,45,0.00,NA,NA,-99.99,VWS Version 10.38,2013-10-14 22:09:00,
2013-10-14 18:14:00,55.9,35.5,30.41,SSE,147,0.0,0.0,46,0.00,NA,NA,-99.99,VWS Version 10.38,2013-10-14 22:14:00,
2013-10-14 18:24:00,54.9,35.0,30.41,SSE,147,0.0,0.0,47,0.00,NA,NA,-99.99,VWS Version 10.38,2013-10-14 22:24:00,
2013-10-14 18:29:00,54.5,35.2,30.41,SSE,147,0.0,0.0,48,0.00,NA,NA,-99.99,VWS Version 10.38,2013-10-14 22:29:00,
2013-10-14 18:34:00,54.0,35.2,30.41,SSE,147,0.0,0.0,49,0.00,NA,NA,-99.99,VWS Version 10.38,2013-10-14 22:34:00,
2013-10-14 18:39:00,53.6,34.9,30.41,SSE,147,0.0,0.0,49,0.00,NA,NA,-99.99,VWS Version 10.38,2013-10-14 22:39:00,
2013-10-14 18:44:00,53.2,35.6,30.41,SSE,147,0.0,0.0,51,0.00,NA,NA,-99.99,VWS Version 10.38,2013-10-14 22:44:00,
2013-10-14 18:49:00,53.1,35.9,30.41,SSE,147,0.0,0.0,52,0.00,NA,NA,-99.99,VWS Version 10.38,2013-10-14 22:49:00,
2013-10-14 18:59:00,52.3,35.7,30.41,SSE,147,0.0,0.0,53,0.00,NA,NA,-99.99,VWS Version 10.38,2013-10-14 22:59:00,
2013-10-14 19:04:00,52.0,35.9,30.41,SSE,147,0.0,0.0,54,0.00,NA,NA,-99.99,VWS Version 10.38,2013-10-14 23:04:00,
2013-10-14 19:09:00,51.6,36.5,30.41,SSE,147,0.0,0.0,56,0.00,NA,NA,-99.99,VWS Version 10.38,2013-10-14 23:09:00,
2013-10-14 19:14:00,51.3,36.6,30.41,SSE,147,0.0,0.0,57,0.00,NA,NA,-99.99,VWS Version 10.38,2013-10-14 23:14:00,
2013-10-14 19:19:00,51.1,36.4,30.41,SSE,147,0.0,0.0,57,0.00,NA,NA,-99.99,VWS Version 10.38,2013-10-14 23:19:00,
2013-10-14 19:24:00,50.7,36.5,30.41,SSE,147,0.0,0.0,58,0.00,NA,NA,-99.99,VWS Version 10.38,2013-10-14 23:24:00,
2013-10-14 19:29:00,50.5,36.8,30.41,SSE,147,0.0,0.0,59,0.00,NA,NA,-99.99,VWS Version 10.38,2013-10-14 23:29:00,
2013-10-14 19:39:00,50.2,37.3,30.41,SSE,147,0.0,0.0,61,0.00,NA,NA,-99.99,VWS Version 10.38,2013-10-14 23:39:00,
2013-10-14 19:44:00,50.0,37.1,30.41,SSE,147,0.0,0.0,61,0.00,NA,NA,-99.99,VWS Version 10.38,2013-10-14 23:44:00,
2013-10-14 19:49:00,49.8,37.3,30.41,SSE,147,0.0,0.0,62,0.00,NA,NA,-99.99,VWS Version 10.38,2013-10-14 23:49:00,
2013-10-14 19:54:00,49.5,37.4,30.41,SSE,147,0.0,0.0,63,0.00,NA,NA,-99.99,VWS Version 10.38,2013-10-14 23:54:00,
2013-10-14 19:59:00,49.3,37.2,30.41,SSE,147,0.0,0.0,63,0.00,NA,NA,-99.99,VWS Version 10.38,2013-10-14 23:59:00,
2013-10-14 20:04:00,49.1,37.5,30.41,SSE,147,0.0,0.0,64,0.00,NA,NA,-99.99,VWS Version 10.38,2013-10-15 00:04:00,
2013-10-14 20:14:00,48.7,37.5,30.44,SSE,147,0.0,0.0,65,0.00,NA,NA,-99.99,VWS Version 10.38,2013-10-15 00:14:00,
2013-10-14 20:19:00,48.6,37.7,30.44,SSE,147,0.0,0.0,66,0.00,NA,NA,-99.99,VWS Version 10.38,2013-10-15 00:19:00,
2013-10-14 20:24:00,48.4,37.6,30.44,SSE,147,0.0,0.0,66,0.00,NA,NA,-99.99,VWS Version 10.38,2013-10-15 00:24:00,
2013-10-14 20:29:00,48.2,37.8,30.41,SSE,147,0.0,0.0,67,0.00,NA,NA,-99.99,VWS Version 10.38,2013-10-15 00:29:00,
2013-10-14 20:34:00,48.2,37.8,30.41,SSE,147,0.0,0.0,67,0.00,NA,NA,-99.99,VWS Version 10.38,2013-10-15 00:34:00,
2013-10-14 20:39:00,48.0,38.0,30.41,SSE,147,0.0,0.0,68,0.00,NA,NA,-99.99,VWS Version 10.38,2013-10-15 00:39:00,
2013-10-14 20:49:00,47.7,38.0,30.41,SSE,147,0.0,0.0,69,0.00,NA,NA,-99.99,VWS Version 10.38,2013-10-15 00:49:00,
2013-10-14 20:54:00,47.5,38.2,30.41,SSE,147,0.0,0.0,70,0.00,NA,NA,-99.99,VWS Version 10.38,2013-10-15 00:54:00,
2013-10-14 20:59:00,47.3,38.0,30.41,SSE,147,0.0,0.0,70,0.00,NA,NA,-99.99,VWS Version 10.38,2013-10-15 00:59:00,
2013-10-14 21:04:00,47.1,37.8,30.41,SSE,147,0.0,0.0,70,0.00,NA,NA,-99.99,VWS Version 10.38,2013-10-15 01:04:00,
2013-10-14 21:09:00,46.9,38.0,30.41,SSE,147,0.0,0.0,71,0.00,NA,NA,-99.99,VWS Version 10.38,2013-10-15 01:09:00,
2013-10-14 21:14:00,46.9,38.0,30.41,SSE,147,0.0,0.0,71,0.00,NA,NA,-99.99,VWS Version 10.38,2013-10-15 01:14:00,
2013-10-14 21:24:00,46.6,38.0,30.41,SSE,147,0.0,0.0,72,0.00,NA,NA,-99.99,VWS Version 10.38,2013-10-15 01:24:00,
2013-10-14 21:29:00,46.6,38.0,30.41,SSE,147,0.0,0.0,72,0.00,NA,NA,-99.99,VWS Version 10.38,2013-10-15 01:29:00,
2013-10-14 21:34:00,46.4,38.2,30.41,SSE,147,0.0,0.0,73,0.00,NA,NA,-99.99,VWS Version 10.38,2013-10-15 01:34:00,
2013-10-14 21:39:00,46.2,38.4,30.41,SSE,147,0.0,0.0,74,0.00,NA,NA,-99.99,VWS Version 10.38,2013-10-15 01:39:00,
2013-10-14 21:44:00,46.2,38.4,30.41,SSE,147,0.0,0.0,74,0.00,NA,NA,-99.99,VWS Version 10.38,2013-10-15 01:44:00,
2013-10-14 21:49:00,46.2,38.4,30.41,SSE,147,0.0,0.0,74,0.00,NA,NA,-99.99,VWS Version 10.38,2013-10-15 01:49:00,
2013-10-14 21:59:00,45.9,38.4,30.41,SSE,147,0.0,0.0,75,0.00,NA,NA,-99.99,VWS Version 10.38,2013-10-15 01:59:00,
2013-10-14 22:04:00,45.9,38.4,30.41,SSE,147,0.0,0.0,75,0.00,NA,NA,-99.99,VWS Version 10.38,2013-10-15 02:04:00,
2013-10-14 22:09:00,45.9,38.4,30.41,SSE,147,0.0,0.0,75,0.00,NA,NA,-99.99,VWS Version 10.38,2013-10-15 02:09:00,
2013-10-14 22:14:00,45.7,38.2,30.41,SSE,147,0.0,0.0,75,0.00,NA,NA,-99.99,VWS Version 10.38,2013-10-15 02:14:00,
2013-10-14 22:19:00,45.9,38.7,30.41,SSE,147,0.0,0.0,76,0.00,NA,NA,-99.99,VWS Version 10.38,2013-10-15 02:19:00,
2013-10-14 22:24:00,45.7,38.6,30.41,SSE,147,0.0,0.0,76,0.00,NA,NA,-99.99,VWS Version 10.38,2013-10-15 02:24:00,
2013-10-14 22:34:00,45.5,38.4,30.41,SSE,147,0.0,0.0,76,0.00,NA,NA,-99.99,VWS Version 10.38,2013-10-15 02:34:00,
2013-10-14 22:44:00,45.1,38.4,30.41,SSE,147,0.0,0.0,77,0.00,NA,NA,-99.99,VWS Version 10.38,2013-10-15 02:44:00,
2013-10-14 22:49:00,45.1,38.4,30.41,SSE,147,0.0,0.0,77,0.00,NA,NA,-99.99,VWS Version 10.38,2013-10-15 02:49:00,
2013-10-14 22:54:00,45.3,38.9,30.41,SSE,147,0.0,0.0,78,0.00,NA,NA,-99.99,VWS Version 10.38,2013-10-15 02:54:00,
2013-10-14 22:59:00,45.1,38.7,30.41,SSE,147,0.0,0.0,78,0.00,NA,NA,-99.99,VWS Version 10.38,2013-10-15 02:59:00,
2013-10-14 23:04:00,45.1,38.7,30.41,SSE,147,0.0,0.0,78,0.00,NA,NA,-99.99,VWS Version 10.38,2013-10-15 03:04:00,
2013-10-14 23:09:00,45.1,38.7,30.41,SSE,147,0.0,0.0,78,0.00,NA,NA,-99.99,VWS Version 10.38,2013-10-15 03:09:00,
2013-10-14 23:19:00,44.8,38.7,30.41,SSE,147,0.0,0.0,79,0.00,NA,NA,-99.99,VWS Version 10.38,2013-10-15 03:19:00,
2013-10-14 23:24:00,45.0,38.8,30.41,SSE,147,0.0,0.0,79,0.00,NA,NA,-99.99,VWS Version 10.38,2013-10-15 03:24:00,
2013-10-14 23:29:00,44.8,38.7,30.41,SSE,147,0.0,0.0,79,0.00,NA,NA,-99.99,VWS Version 10.38,2013-10-15 03:29:00,
2013-10-14 23:34:00,44.6,38.5,30.41,SSE,147,0.0,0.0,79,0.00,NA,NA,-99.99,VWS Version 10.38,2013-10-15 03:34:00,
2013-10-14 23:39:00,44.6,38.8,30.41,SSE,147,0.0,0.0,80,0.00,NA,NA,-99.99,VWS Version 10.38,2013-10-15 03:39:00,
2013-10-14 23:44:00,44.6,38.8,30.41,SSE,147,0.0,0.0,80,0.00,NA,NA,-99.99,VWS Version 10.38,2013-10-15 03:44:00,
2013-10-14 23:54:00,44.2,38.5,30.41,SSE,147,0.0,0.0,80,0.00,NA,NA,-99.99,VWS Version 10.38,2013-10-15 03:54:00,
2013-10-14 23:59:00,44.4,39.0,30.41,SSE,147,0.0,0.0,81,0.00,NA,NA,-99.99,VWS Version 10.38,2013-10-15 03:59:00,